Northwest Sanderling — VNVZ — position and weather

sailwx.info

Track history (hours):
 
Tides and Currents Weather Stations Pressure Air Temp Water Temp Dewpoint Dewpoint Depression Visibility Wind Speed Wind Dir Waves Ship Positions

Northwest Sanderling

Last reported at 2018-May-14 13:16 UTC. Time now 2018-May-21 15:16 UTC.
Position S 20°15' E 116°47'.

Length 272 m; beam 47.2 m; draft 11.4 m.

Type: Ship (hazmat cat A). MMSI: 503000050.

Date/timePositionNaut miles runAvg speedWind from/ knotsBaromVisibWave heightAir tempDewpointWater temp
2018-May-14 13:16S 20°15' E 116°47'512.6
2018-May-14 12:55S 20°19' E 116°45'511.9
2018-May-14 12:29S 20°24' E 116°44'5 9.7
2018-May-14 11:59S 20°29' E 116°44'4 9.0
2018-May-14 11:30S 20°33' E 116°44'3 0.1
2018-May-13 06:29S 20°35' E 116°46'0 0.3
2018-May-13 06:00S 20°35' E 116°46'1 1.7
2018-May-13 05:30S 20°35' E 116°45'4 6.6
2018-May-13 04:55S 20°31' E 116°43'610.9
2018-May-13 04:24S 20°26' E 116°43'410.1
2018-May-13 04:00S 20°22' E 116°44'  
2018-May-10 22:14S 16°56' E 118°46'312.9
2018-May-10 22:00S 16°58' E 118°45'712.9
2018-May-10 21:30S 17°04' E 118°41'4112.9
2018-May-10 18:20S 17°40' E 118°21'512.4
2018-May-10 17:56S 17°45' E 118°19'512.7
2018-May-10 17:30S 17°49' E 118°16'612.8
2018-May-10 17:00S 17°55' E 118°13'1012.9
2018-May-10 16:13S 18°04' E 118°09'312.9
2018-May-10 15:59S 18°07' E 118°07'21 1.8
2018-May-10 04:08S 17°47' E 118°16'216.0
2018-May-10 03:59S 17°45' E 118°17'40 7.3
2018-May-09 22:30S 17°10' E 118°38'115 3.4
2018-May-08 12:30S 18°49' E 117°35'713.1
2018-May-08 11:59S 18°55' E 117°33'3 6.7
2018-May-08 11:28S 18°57' E 117°36'713.6
2018-May-08 10:59S 18°51' E 117°39'1113.5
2018-May-08 10:11S 18°42' E 117°45'4813.1
2018-May-08 06:32S 17°58' E 118°06'213.5
2018-May-08 06:22S 17°56' E 118°07'2815.8
2018-May-08 04:34S 17°30' E 118°19'216.2
2018-May-08 04:28S 17°29' E 118°20'816.3
2018-May-08 03:59S 17°22' E 118°23'3514.9
2018-May-08 01:38S 16°49' E 118°38'314.0
2018-May-08 01:27S 16°47' E 118°39'613.4
2018-May-08 00:58S 16°41' E 118°38'  
Track history (hours):
 
Tides and Currents Weather Stations Pressure Air Temp Water Temp Dewpoint Dewpoint Depression Visibility Wind Speed Wind Dir Waves Ship Positions

Northwest Sanderling

Last reported at 2018-May-14 13:16 UTC. Time now 2018-May-21 15:16 UTC.
Position S 20°15' E 116°47'.

Length 272 m; beam 47.2 m; draft 11.4 m.

Type: Ship (hazmat cat A). MMSI: 503000050.

Date/timePositionNaut miles runAvg speedWind from/ knotsBaromVisibWave heightAir tempDewpointWater temp
2018-May-14 13:16S 20°15' E 116°47'512.6
2018-May-14 12:55S 20°19' E 116°45'511.9
2018-May-14 12:29S 20°24' E 116°44'5 9.7
2018-May-14 11:59S 20°29' E 116°44'4 9.0
2018-May-14 11:30S 20°33' E 116°44'3 0.1
2018-May-13 06:29S 20°35' E 116°46'0 0.3
2018-May-13 06:00S 20°35' E 116°46'1 1.7
2018-May-13 05:30S 20°35' E 116°45'4 6.6
2018-May-13 04:55S 20°31' E 116°43'610.9
2018-May-13 04:24S 20°26' E 116°43'410.1
2018-May-13 04:00S 20°22' E 116°44'  
2018-May-10 22:14S 16°56' E 118°46'312.9
2018-May-10 22:00S 16°58' E 118°45'712.9
2018-May-10 21:30S 17°04' E 118°41'4112.9
2018-May-10 18:20S 17°40' E 118°21'512.4
2018-May-10 17:56S 17°45' E 118°19'512.7
2018-May-10 17:30S 17°49' E 118°16'612.8
2018-May-10 17:00S 17°55' E 118°13'1012.9
2018-May-10 16:13S 18°04' E 118°09'312.9
2018-May-10 15:59S 18°07' E 118°07'21 1.8
2018-May-10 04:08S 17°47' E 118°16'216.0
2018-May-10 03:59S 17°45' E 118°17'40 7.3
2018-May-09 22:30S 17°10' E 118°38'115 3.4
2018-May-08 12:30S 18°49' E 117°35'713.1
2018-May-08 11:59S 18°55' E 117°33'3 6.7
2018-May-08 11:28S 18°57' E 117°36'713.6
2018-May-08 10:59S 18°51' E 117°39'1113.5
2018-May-08 10:11S 18°42' E 117°45'4813.1
2018-May-08 06:32S 17°58' E 118°06'213.5
2018-May-08 06:22S 17°56' E 118°07'2815.8
2018-May-08 04:34S 17°30' E 118°19'216.2
2018-May-08 04:28S 17°29' E 118°20'816.3
2018-May-08 03:59S 17°22' E 118°23'3514.9
2018-May-08 01:38S 16°49' E 118°38'314.0
2018-May-08 01:27S 16°47' E 118°39'613.4
2018-May-08 00:58S 16°41' E 118°38'  

Dump ship's entire track history